createdAt,value
2018-03-28T00:02:18.345Z,5.50
2018-03-28T00:04:46.796Z,5.50
2018-03-28T00:07:15.173Z,5.50
2018-03-28T00:09:43.790Z,5.50
2018-03-28T00:12:12.959Z,5.50
2018-03-28T00:14:46.260Z,5.50
2018-03-28T00:17:15.066Z,5.50
2018-03-28T00:19:44.366Z,5.50
2018-03-28T00:22:12.764Z,5.50
2018-03-28T00:24:41.332Z,5.50
2018-03-28T00:27:09.910Z,5.50
2018-03-28T00:29:38.366Z,5.50
2018-03-28T00:32:06.791Z,5.50
2018-03-28T00:34:35.624Z,5.50
2018-03-28T00:37:04.010Z,5.50
2018-03-28T00:39:33.172Z,5.50
2018-03-28T00:42:01.818Z,5.50
2018-03-28T00:44:31.122Z,5.50
2018-03-28T00:47:00.286Z,5.50
2018-03-28T00:49:29.720Z,5.50
2018-03-28T00:51:58.860Z,5.50
2018-03-28T00:54:27.316Z,5.50
2018-03-28T00:56:55.780Z,5.50
2018-03-28T00:59:24.274Z,5.50
2018-03-28T01:01:52.840Z,5.50
2018-03-28T01:04:21.528Z,5.50
2018-03-28T01:06:49.999Z,5.60
2018-03-28T01:09:19.224Z,5.60
2018-03-28T01:11:47.887Z,5.60
2018-03-28T01:14:16.387Z,5.50
2018-03-28T01:16:45.223Z,5.60
2018-03-28T01:19:13.618Z,5.50
2018-03-28T01:21:42.141Z,5.60
2018-03-28T01:24:11.022Z,5.60
2018-03-28T01:26:39.492Z,5.50
2018-03-28T01:29:08.074Z,5.60
2018-03-28T01:31:36.487Z,5.60
2018-03-28T01:34:05.031Z,5.60
2018-03-28T01:36:33.620Z,5.60
2018-03-28T01:47:55.300Z,5.60
2018-03-28T01:50:23.878Z,5.60
2018-03-28T01:52:53.019Z,5.60
2018-03-28T01:55:21.428Z,5.60
2018-03-28T01:57:50.754Z,5.60
2018-03-28T02:00:19.940Z,5.60
2018-03-28T02:02:49.115Z,5.60
2018-03-28T02:05:19.168Z,5.60
2018-03-28T02:07:47.583Z,5.60
2018-03-28T02:10:16.016Z,5.60
2018-03-28T02:12:45.154Z,5.60
2018-03-28T02:15:13.554Z,5.60
2018-03-28T02:17:41.961Z,5.50
2018-03-28T02:20:10.566Z,5.50
2018-03-28T02:22:39.143Z,5.50
2018-03-28T02:25:07.544Z,5.50
2018-03-28T02:27:36.518Z,5.50
2018-03-28T02:30:05.658Z,5.50
2018-03-28T02:32:34.197Z,5.50
2018-03-28T02:35:02.779Z,5.50
2018-03-28T02:37:31.182Z,5.50
2018-03-28T02:39:59.635Z,5.50
2018-03-28T02:42:29.036Z,5.50
2018-03-28T02:44:57.519Z,5.50
2018-03-28T02:47:26.725Z,5.40
2018-03-28T02:49:55.226Z,5.40
2018-03-28T02:52:23.591Z,5.40
2018-03-28T02:54:52.264Z,5.40
2018-03-28T02:57:20.672Z,5.40
2018-03-28T02:59:49.051Z,5.40
2018-03-28T03:02:17.604Z,5.40
2018-03-28T03:04:46.183Z,5.30
2018-03-28T03:07:14.664Z,5.30
2018-03-28T03:09:43.163Z,5.30
2018-03-28T03:12:11.732Z,5.30
2018-03-28T03:14:41.322Z,5.20
2018-03-28T03:17:10.552Z,5.20
2018-03-28T03:19:39.120Z,5.20
2018-03-28T03:22:08.282Z,5.20
2018-03-28T03:24:36.797Z,5.20
2018-03-28T03:27:06.135Z,5.20
2018-03-28T03:29:34.579Z,5.20
2018-03-28T03:32:02.961Z,5.20
2018-03-28T03:34:31.537Z,5.20
2018-03-28T03:37:00.781Z,5.20
2018-03-28T03:39:29.861Z,5.20
2018-03-28T03:41:58.326Z,5.20
2018-03-28T03:44:26.825Z,5.20
2018-03-28T03:46:55.199Z,5.20
2018-03-28T03:49:23.671Z,5.20
2018-03-28T03:51:52.234Z,5.20
2018-03-28T03:54:21.392Z,5.20
2018-03-28T03:56:50.016Z,5.10
2018-03-28T03:59:18.598Z,5.10
2018-03-28T04:01:47.009Z,5.20
2018-03-28T04:04:15.658Z,5.10
2018-03-28T04:06:44.791Z,5.10
2018-03-28T04:09:13.340Z,5.10
2018-03-28T04:11:41.782Z,5.10
2018-03-28T04:14:10.410Z,5.10
2018-03-28T04:16:39.693Z,5.10
2018-03-28T04:19:08.842Z,5.10
2018-03-28T04:21:37.379Z,5.10
2018-03-28T04:24:05.815Z,5.10
2018-03-28T04:26:34.991Z,5.10
2018-03-28T04:29:03.450Z,5.10
2018-03-28T04:31:31.937Z,5.10
2018-03-28T04:34:00.500Z,5.10
2018-03-28T04:36:29.694Z,5.10
2018-03-28T04:39:04.103Z,5.20
2018-03-28T04:41:32.603Z,5.10
2018-03-28T04:44:01.799Z,5.10
2018-03-28T04:46:30.377Z,5.20
2018-03-28T04:48:59.679Z,5.20
2018-03-28T04:51:29.075Z,5.20
2018-03-28T04:53:58.209Z,5.20
2018-03-28T04:56:26.650Z,5.20
2018-03-28T04:58:56.225Z,5.10
2018-03-28T05:01:24.595Z,5.10
2018-03-28T05:03:52.997Z,5.10
2018-03-28T05:06:21.519Z,5.10
2018-03-28T05:08:50.000Z,5.10
2018-03-28T05:11:18.461Z,5.10
2018-03-28T05:13:47.760Z,5.20
2018-03-28T05:16:16.194Z,5.20
2018-03-28T05:18:44.592Z,5.20
2018-03-28T05:21:12.954Z,5.20
2018-03-28T05:23:42.211Z,5.20
2018-03-28T05:26:10.604Z,5.20
2018-03-28T05:28:38.997Z,5.20
2018-03-28T05:31:07.742Z,5.20
2018-03-28T05:33:36.323Z,5.20
2018-03-28T05:36:05.488Z,5.20
2018-03-28T05:38:33.998Z,5.20
2018-03-28T05:41:02.378Z,5.20
2018-03-28T05:43:31.574Z,5.30
2018-03-28T05:45:59.960Z,5.30
2018-03-28T05:48:29.261Z,5.30
2018-03-28T05:50:58.153Z,5.30
2018-03-28T05:53:26.531Z,5.30
2018-03-28T05:55:54.945Z,5.30
2018-03-28T05:58:23.773Z,5.30
2018-03-28T06:00:52.912Z,5.30
2018-03-28T06:03:21.332Z,5.30
2018-03-28T06:05:51.239Z,5.30
2018-03-28T06:08:19.766Z,5.30
2018-03-28T06:10:48.907Z,5.30
2018-03-28T06:13:17.546Z,5.30
2018-03-28T06:15:46.710Z,5.40
2018-03-28T06:18:15.155Z,5.30
2018-03-28T06:20:43.702Z,5.40
2018-03-28T06:23:12.171Z,5.40
2018-03-28T06:25:41.486Z,5.50
2018-03-28T06:28:10.617Z,5.50
2018-03-28T06:30:39.050Z,5.50
2018-03-28T06:33:07.825Z,5.60
2018-03-28T06:35:36.227Z,5.60
2018-03-28T06:38:04.616Z,5.70
2018-03-28T06:40:33.082Z,5.70
2018-03-28T06:43:02.678Z,5.80
2018-03-28T06:45:31.825Z,5.80
2018-03-28T06:48:00.217Z,5.80
2018-03-28T06:50:28.680Z,5.80
2018-03-28T06:52:57.046Z,5.80
2018-03-28T06:55:25.611Z,5.80
2018-03-28T06:57:54.290Z,5.80
2018-03-28T07:00:23.435Z,5.80
2018-03-28T07:02:51.970Z,5.80
2018-03-28T07:05:21.372Z,5.80
2018-03-28T07:07:50.674Z,5.80
2018-03-28T07:10:19.972Z,5.80
2018-03-28T07:12:49.291Z,5.80
2018-03-28T07:15:17.673Z,5.80
2018-03-28T07:17:46.093Z,5.80
2018-03-28T07:20:14.634Z,5.80
2018-03-28T07:22:43.100Z,5.80
2018-03-28T07:25:12.268Z,5.80
2018-03-28T07:27:41.695Z,5.80
2018-03-28T07:30:10.191Z,5.80
2018-03-28T07:32:38.757Z,5.90
2018-03-28T07:35:07.952Z,6.00
2018-03-28T07:37:37.146Z,6.10
2018-03-28T07:40:06.363Z,6.20
2018-03-28T07:42:34.925Z,6.10
2018-03-28T07:45:04.336Z,6.30
2018-03-28T07:47:32.726Z,6.30
2018-03-28T07:50:01.211Z,6.40
2018-03-28T07:52:29.598Z,6.50
2018-03-28T07:54:57.968Z,6.70
2018-03-28T07:57:26.428Z,6.80
2018-03-28T07:59:55.642Z,6.90
2018-03-28T08:02:24.214Z,6.80
2018-03-28T08:04:53.412Z,7.00
2018-03-28T08:07:22.714Z,7.10
2018-03-28T08:09:51.134Z,7.10
2018-03-28T08:12:19.506Z,7.10
2018-03-28T08:14:48.153Z,7.00
2018-03-28T08:17:17.450Z,7.00
2018-03-28T08:19:46.668Z,7.10
2018-03-28T08:22:15.052Z,7.10
2018-03-28T08:24:43.608Z,7.10
2018-03-28T08:27:12.747Z,7.20
2018-03-28T08:29:41.293Z,7.20
2018-03-28T08:32:10.196Z,7.30
2018-03-28T08:34:38.566Z,7.30
2018-03-28T08:37:06.979Z,7.20
2018-03-28T08:39:35.625Z,7.20
2018-03-28T08:42:04.205Z,7.20
2018-03-28T08:44:32.592Z,7.20
2018-03-28T08:47:01.430Z,7.20
2018-03-28T08:49:29.951Z,7.20
2018-03-28T08:51:59.255Z,7.10
2018-03-28T08:54:27.745Z,7.10
2018-03-28T08:56:56.236Z,7.10
2018-03-28T08:59:24.797Z,7.10
2018-03-28T09:01:53.232Z,7.10
2018-03-28T09:04:21.861Z,7.10
2018-03-28T09:06:51.026Z,7.10
2018-03-28T09:09:21.002Z,7.10
2018-03-28T09:11:49.556Z,7.10
2018-03-28T09:14:18.713Z,7.10
2018-03-28T09:16:47.334Z,7.10
2018-03-28T09:19:15.828Z,7.10
2018-03-28T09:21:44.810Z,7.10
2018-03-28T09:24:13.189Z,7.00
2018-03-28T09:26:42.348Z,7.10
2018-03-28T09:29:10.865Z,7.00
2018-03-28T09:31:40.167Z,7.10
2018-03-28T09:34:09.437Z,7.20
2018-03-28T09:36:39.318Z,7.20
2018-03-28T09:39:07.862Z,7.20
2018-03-28T09:41:36.446Z,7.20
2018-03-28T09:44:05.037Z,7.20
2018-03-28T09:46:33.451Z,7.30
2018-03-28T09:49:01.882Z,7.30
2018-03-28T09:51:31.594Z,7.40
2018-03-28T09:54:00.741Z,7.40
2018-03-28T09:56:29.153Z,7.40
2018-03-28T09:58:58.572Z,7.50
2018-03-28T10:01:33.611Z,7.50
2018-03-28T10:04:07.841Z,7.50
2018-03-28T10:06:36.326Z,7.60
2018-03-28T10:09:04.791Z,7.70
2018-03-28T10:11:33.248Z,7.70
2018-03-28T10:14:02.399Z,8.00
2018-03-28T10:16:30.771Z,8.00
2018-03-28T10:18:59.631Z,8.10
2018-03-28T10:21:28.213Z,8.20
2018-03-28T10:23:56.615Z,8.40
2018-03-28T10:26:25.088Z,8.50
2018-03-28T10:28:53.656Z,8.50
2018-03-28T10:31:22.973Z,8.70
2018-03-28T10:33:51.453Z,8.60
2018-03-28T10:36:19.832Z,8.80
2018-03-28T10:38:48.398Z,8.90
2018-03-28T10:41:16.977Z,9.00
2018-03-28T10:43:45.561Z,9.10
2018-03-28T10:46:13.939Z,9.10
2018-03-28T10:48:43.148Z,8.90
2018-03-28T10:51:11.719Z,8.90
2018-03-28T10:53:40.145Z,8.90
2018-03-28T10:56:09.026Z,8.80
2018-03-28T10:58:37.445Z,8.70
2018-03-28T11:01:05.953Z,8.70
2018-03-28T11:03:35.131Z,8.90
2018-03-28T11:06:03.520Z,8.90
2018-03-28T11:08:32.827Z,9.20
2018-03-28T11:11:02.072Z,9.50
2018-03-28T11:13:30.522Z,9.40
2018-03-28T11:15:58.920Z,9.60
2018-03-28T11:18:27.358Z,9.90
2018-03-28T11:20:56.502Z,10.20
2018-03-28T11:23:24.919Z,10.20
2018-03-28T11:25:54.141Z,10.60
2018-03-28T11:28:22.718Z,10.60
2018-03-28T11:30:52.120Z,11.10
2018-03-28T11:33:21.268Z,11.40
2018-03-28T11:35:49.697Z,11.40
2018-03-28T11:38:18.204Z,11.50
2018-03-28T11:40:46.605Z,11.70
2018-03-28T11:43:15.054Z,11.90
2018-03-28T11:45:43.619Z,12.00
2018-03-28T11:48:12.812Z,12.20
2018-03-28T11:50:42.114Z,12.20
2018-03-28T11:53:11.692Z,12.30
2018-03-28T11:55:40.080Z,12.30
2018-03-28T11:58:09.401Z,12.40
2018-03-28T12:00:37.888Z,12.40
2018-03-28T12:03:06.571Z,12.50
2018-03-28T12:05:35.154Z,12.50
2018-03-28T12:08:04.451Z,12.70
2018-03-28T12:10:33.034Z,12.60
2018-03-28T12:13:02.196Z,12.50
2018-03-28T12:15:31.408Z,12.50
2018-03-28T12:18:00.573Z,12.50
2018-03-28T12:20:29.107Z,12.50
2018-03-28T12:22:57.489Z,12.60
2018-03-28T12:25:26.730Z,12.80
2018-03-28T12:27:55.267Z,12.70
2018-03-28T12:30:24.512Z,12.70
2018-03-28T12:32:53.045Z,12.70
2018-03-28T12:35:22.195Z,12.90
2018-03-28T12:37:50.829Z,12.80
2018-03-28T12:40:20.126Z,12.90
2018-03-28T12:42:49.425Z,13.00
2018-03-28T12:45:18.615Z,13.00
2018-03-28T12:47:47.210Z,13.00
2018-03-28T12:50:15.710Z,13.00
2018-03-28T12:52:44.147Z,12.90
2018-03-28T12:55:13.301Z,12.80
2018-03-28T12:57:41.711Z,12.80
2018-03-28T13:00:10.160Z,12.70
2018-03-28T13:02:38.711Z,12.70
2018-03-28T13:05:08.027Z,12.60
2018-03-28T13:07:36.464Z,12.70
2018-03-28T13:10:04.860Z,12.60
2018-03-28T13:12:34.042Z,12.70
2018-03-28T13:15:03.254Z,12.70
2018-03-28T13:17:32.971Z,12.70
2018-03-28T13:20:02.274Z,12.80
2018-03-28T13:22:30.699Z,12.70
2018-03-28T13:24:59.228Z,12.70
2018-03-28T13:27:28.366Z,12.80
2018-03-28T13:29:56.790Z,12.70
2018-03-28T13:32:25.191Z,12.80
2018-03-28T13:34:53.644Z,12.80
2018-03-28T13:37:22.143Z,12.80
2018-03-28T13:39:50.522Z,12.80
2018-03-28T13:42:19.692Z,12.10
2018-03-28T13:44:48.499Z,12.10
2018-03-28T13:47:17.647Z,11.40
2018-03-28T13:49:46.016Z,11.40
2018-03-28T13:52:14.480Z,11.20
2018-03-28T13:54:42.923Z,11.00
2018-03-28T13:57:12.245Z,10.40
2018-03-28T13:59:40.693Z,10.40
2018-03-28T14:02:09.081Z,10.20
2018-03-28T14:04:37.690Z,10.20
2018-03-28T14:07:06.189Z,10.10
2018-03-28T14:09:34.648Z,9.90
2018-03-28T14:12:03.829Z,9.60
2018-03-28T14:14:33.059Z,9.50
2018-03-28T14:17:01.523Z,9.50
2018-03-28T14:19:30.823Z,9.30
2018-03-28T14:21:59.982Z,9.20
2018-03-28T14:24:28.608Z,9.20
2018-03-28T14:26:57.764Z,9.00
2018-03-28T14:29:26.191Z,9.00
2018-03-28T14:31:54.765Z,8.90
2018-03-28T14:34:23.345Z,8.90
2018-03-28T14:36:53.023Z,8.70
2018-03-28T14:39:21.397Z,8.70
2018-03-28T14:41:49.832Z,8.60
2018-03-28T14:44:18.310Z,8.60
2018-03-28T14:46:46.790Z,8.50
2018-03-28T14:49:15.167Z,8.50
2018-03-28T14:51:43.841Z,8.40
2018-03-28T14:54:12.236Z,8.40
2018-03-28T14:56:40.800Z,8.40
2018-03-28T14:59:09.794Z,8.30
2018-03-28T15:01:38.189Z,8.30
2018-03-28T15:04:06.567Z,8.30
2018-03-28T15:06:34.994Z,8.20
2018-03-28T15:09:03.614Z,8.20
2018-03-28T15:11:33.016Z,8.30
2018-03-28T15:14:01.431Z,8.30
2018-03-28T15:16:29.812Z,8.30
2018-03-28T15:18:58.371Z,8.40
2018-03-28T15:21:26.748Z,8.50
2018-03-28T15:23:55.215Z,8.50
2018-03-28T15:26:24.415Z,8.60
2018-03-28T15:28:53.594Z,8.50
2018-03-28T15:31:22.034Z,8.50
2018-03-28T15:33:50.443Z,8.50
2018-03-28T15:36:18.862Z,8.50
2018-03-28T15:38:47.671Z,8.50
2018-03-28T15:41:16.071Z,8.40
2018-03-28T15:43:44.477Z,8.40
2018-03-28T15:46:13.679Z,8.40
2018-03-28T15:48:42.866Z,8.40
2018-03-28T15:51:12.006Z,8.30
2018-03-28T15:53:40.466Z,8.30
2018-03-28T15:56:09.639Z,8.20
2018-03-28T15:58:38.132Z,8.20
2018-03-28T16:01:07.384Z,8.10
2018-03-28T16:03:36.643Z,8.10
2018-03-28T16:06:05.833Z,8.10
2018-03-28T16:08:35.176Z,8.10
2018-03-28T16:11:03.633Z,8.10
2018-03-28T16:13:32.046Z,8.10
2018-03-28T16:16:00.814Z,8.20
2018-03-28T16:18:29.200Z,8.20
2018-03-28T16:20:57.753Z,8.20
2018-03-28T16:23:26.635Z,8.20
2018-03-28T16:25:55.080Z,8.20
2018-03-28T16:28:23.558Z,8.10
2018-03-28T16:30:51.992Z,8.00
2018-03-28T16:33:20.391Z,8.00
2018-03-28T16:35:48.785Z,8.00
2018-03-28T16:38:17.250Z,7.90
2018-03-28T16:40:45.667Z,7.80
2018-03-28T16:43:14.865Z,7.70
2018-03-28T16:45:43.305Z,7.70
2018-03-28T16:48:11.710Z,7.60
2018-03-28T16:50:41.051Z,7.40
2018-03-28T16:53:09.664Z,7.40
2018-03-28T16:55:38.212Z,7.30
2018-03-28T16:58:07.514Z,7.20
2018-03-28T17:00:35.922Z,7.20
2018-03-28T17:03:04.473Z,7.20
2018-03-28T17:05:33.327Z,7.00
2018-03-28T17:08:03.215Z,6.90
2018-03-28T17:10:31.594Z,6.90
2018-03-28T17:13:00.062Z,6.90
2018-03-28T17:15:28.534Z,6.80
2018-03-28T17:17:57.103Z,6.80
2018-03-28T17:20:25.698Z,6.70
2018-03-28T17:22:54.062Z,6.60
2018-03-28T17:25:23.252Z,6.50
2018-03-28T17:27:52.461Z,6.50
2018-03-28T17:30:21.626Z,6.50
2018-03-28T17:32:50.131Z,6.40
2018-03-28T17:35:19.727Z,6.40
2018-03-28T17:37:49.042Z,6.40
2018-03-28T17:40:17.438Z,6.40
2018-03-28T17:42:45.972Z,6.30
2018-03-28T17:45:16.618Z,6.30
2018-03-28T17:47:45.093Z,6.30
2018-03-28T17:50:13.478Z,6.20
2018-03-28T17:52:42.897Z,6.10
2018-03-28T17:55:11.481Z,6.10
2018-03-28T17:57:40.064Z,6.00
2018-03-28T18:00:08.535Z,6.00
2018-03-28T18:02:36.941Z,6.00
2018-03-28T18:05:05.500Z,6.00
2018-03-28T18:07:34.810Z,6.00
2018-03-28T18:10:03.384Z,6.00
2018-03-28T18:12:32.686Z,5.90
2018-03-28T18:15:01.090Z,5.90
2018-03-28T18:17:29.510Z,5.90
2018-03-28T18:19:57.900Z,5.80
2018-03-28T18:22:28.210Z,5.70
2018-03-28T18:24:56.655Z,5.70
2018-03-28T18:27:25.214Z,5.80
2018-03-28T18:29:54.084Z,5.70
2018-03-28T18:32:23.227Z,5.70
2018-03-28T18:34:51.621Z,5.70
2018-03-28T18:37:20.051Z,5.70
2018-03-28T18:39:49.174Z,5.60
2018-03-28T18:42:17.638Z,5.60
2018-03-28T18:44:46.212Z,5.60
2018-03-28T18:47:15.513Z,5.60
2018-03-28T18:49:44.700Z,5.60
2018-03-28T18:52:14.010Z,5.60
2018-03-28T18:54:43.204Z,5.60
2018-03-28T18:57:12.607Z,5.60
2018-03-28T18:59:41.812Z,5.60
2018-03-28T19:02:11.108Z,5.60
2018-03-28T19:04:39.686Z,5.60
2018-03-28T19:07:08.274Z,5.60
2018-03-28T19:09:36.685Z,5.60
2018-03-28T19:12:05.619Z,5.60
2018-03-28T19:14:34.856Z,5.50
2018-03-28T19:17:03.239Z,5.50
2018-03-28T19:19:32.000Z,5.50
2018-03-28T19:22:00.795Z,5.60
2018-03-28T19:24:29.241Z,5.60
2018-03-28T19:26:57.962Z,5.50
2018-03-28T19:29:27.364Z,5.50
2018-03-28T19:31:56.660Z,5.50
2018-03-28T19:34:25.855Z,5.50
2018-03-28T19:36:54.995Z,5.50
2018-03-28T19:39:23.377Z,5.50
2018-03-28T19:41:51.852Z,5.50
2018-03-28T19:44:20.227Z,5.50
2018-03-28T19:46:48.606Z,5.50
2018-03-28T19:49:17.151Z,5.40
2018-03-28T19:51:46.452Z,5.40
2018-03-28T19:54:15.597Z,5.40
2018-03-28T19:56:44.394Z,5.40
2018-03-28T19:59:12.784Z,5.40
2018-03-28T20:01:41.194Z,5.40
2018-03-28T20:04:10.781Z,5.30
2018-03-28T20:06:39.177Z,5.30
2018-03-28T20:09:07.596Z,5.30
2018-03-28T20:11:36.044Z,5.30
2018-03-28T20:14:05.232Z,5.40
2018-03-28T20:16:33.827Z,5.30
2018-03-28T20:19:02.230Z,5.40
2018-03-28T20:21:30.672Z,5.40
2018-03-28T20:23:59.844Z,5.30
2018-03-28T20:26:28.376Z,5.30
2018-03-28T20:28:56.750Z,5.30
2018-03-28T20:31:25.130Z,5.30
2018-03-28T20:33:53.617Z,5.30
2018-03-28T20:36:22.227Z,5.30
2018-03-28T20:38:50.601Z,5.30
2018-03-28T20:41:19.244Z,5.30
2018-03-28T20:43:47.826Z,5.30
2018-03-28T20:46:17.125Z,5.30
2018-03-28T20:48:45.706Z,5.30
2018-03-28T20:51:14.292Z,5.30
2018-03-28T20:53:43.441Z,5.30
2018-03-28T20:56:12.377Z,5.30
2018-03-28T20:58:40.885Z,5.40
2018-03-28T21:01:09.250Z,5.40
2018-03-28T21:03:38.004Z,5.40
2018-03-28T21:06:06.374Z,5.40
2018-03-28T21:08:34.818Z,5.40
2018-03-28T21:11:03.386Z,5.40
2018-03-28T21:13:31.862Z,5.30
2018-03-28T21:16:00.427Z,5.30
2018-03-28T21:18:29.738Z,5.30
2018-03-28T21:20:58.158Z,5.30
2018-03-28T21:23:26.570Z,5.30
2018-03-28T21:25:55.793Z,5.40
2018-03-28T21:28:24.284Z,5.30
2018-03-28T21:30:52.707Z,5.40
2018-03-28T21:33:21.147Z,5.40
2018-03-28T21:35:49.546Z,5.40
2018-03-28T21:38:17.953Z,5.50
2018-03-28T21:40:46.568Z,5.40
2018-03-28T21:43:15.747Z,5.40
2018-03-28T21:45:44.126Z,5.40
2018-03-28T21:48:13.344Z,5.30
2018-03-28T21:50:41.830Z,5.30
2018-03-28T21:53:10.315Z,5.30
2018-03-28T21:55:38.887Z,5.30
2018-03-28T21:58:08.203Z,5.30
2018-03-28T22:00:36.872Z,5.30
2018-03-28T22:03:05.260Z,5.30
2018-03-28T22:05:33.727Z,5.30
2018-03-28T22:08:02.169Z,5.30
2018-03-28T22:10:30.566Z,5.30
2018-03-28T22:12:59.088Z,5.30
2018-03-28T22:15:27.548Z,5.30
2018-03-28T22:17:56.953Z,5.40
2018-03-28T22:20:26.078Z,5.40
2018-03-28T22:22:54.636Z,5.40
2018-03-28T22:25:23.098Z,5.40
2018-03-28T22:27:52.325Z,5.40
2018-03-28T22:30:20.718Z,5.40
2018-03-28T22:32:49.275Z,5.40
2018-03-28T22:35:18.571Z,5.50
2018-03-28T22:37:47.867Z,5.40
2018-03-28T22:40:17.048Z,5.40
2018-03-28T22:42:46.279Z,5.40
2018-03-28T22:45:14.845Z,5.40
2018-03-28T22:47:44.550Z,5.30
2018-03-28T22:50:13.695Z,5.20
2018-03-28T22:52:42.063Z,5.20
2018-03-28T22:55:10.494Z,5.20
2018-03-28T22:57:40.379Z,5.00
2018-03-28T23:00:13.827Z,5.00
2018-03-28T23:02:42.322Z,5.00
2018-03-28T23:05:10.882Z,5.00
2018-03-28T23:07:39.325Z,5.00
2018-03-28T23:10:09.251Z,4.90
2018-03-28T23:12:37.674Z,4.90
2018-03-28T23:15:06.146Z,4.80
2018-03-28T23:17:34.530Z,4.80
2018-03-28T23:20:03.106Z,4.70
2018-03-28T23:22:40.896Z,4.70
2018-03-28T23:25:10.040Z,4.50
2018-03-28T23:27:38.470Z,4.50
2018-03-28T23:30:07.636Z,4.40
2018-03-28T23:32:37.503Z,4.30
2018-03-28T23:35:06.174Z,4.30
2018-03-28T23:37:34.528Z,4.30
2018-03-28T23:40:03.029Z,4.20
2018-03-28T23:42:31.470Z,4.20
2018-03-28T23:44:59.987Z,4.10
2018-03-28T23:47:28.383Z,4.10
2018-03-28T23:49:56.978Z,4.10
2018-03-28T23:52:25.944Z,4.10
2018-03-28T23:54:55.085Z,4.00
2018-03-28T23:57:23.619Z,3.90
2018-03-28T23:59:52.034Z,3.90
